ICS weather

Cascade Airport
Cascade, Idaho, United States

Public forecast

Using degrees Fahrenheit for public forecast. Weather courtesy of forecast.io.

Closest aviation weather report (METAR) to Cascade Airport

Closest report is McCall Municipal Airport, 24.0 nm (44.5 km) N. Retrieved 2019/10/17 09:51 UTC (17 minutes ago):

KMYL 170951Z AUTO 23021G32KT 10SM OVC100 13/M06 A2969 RMK AO2 PK WND 23032/0950 SLP017 T01331056

Closest aviation forecast (TAF) to Cascade Airport

Closest forecast is McCall Municipal Airport, 24.0 nm (44.5 km) N. Retrieved 2019/10/17 06:22 UTC (4 hours ago):

TAF KMYL 170520Z 1706/1806 VRB06KT P6SM BKN150 FM171100 17006KT P6SM VCSH SCT025 BKN050 FM171500 18008KT P6SM -SHRA SCT010 OVC020 TEMPO 1716/1719 27010KT 5SM -SHRA OVC008 FM172000 28008KT P6SM SCT025 BKN035 FM180500 VRB06KT P6SM VCSH SCT025 OVC035